Elmwood, Louisiana
Current Conditions -  °F | °C
As of 4:53 AM on Thursday 23 Oct 2014 (Local Time) from KMSY Reporting Station
Clear Clear  
Wind Chill: 63°   Ceiling: Unl
Heat Index: 63°   Visibility: 10mi
Dew Point: 49°   Wind: 9mph
Humidity: 60%   Direction: 70°ENE
Pressure: 30.05"   Gusts: NA
Location:  29.9536°N, 90.2034°W
Report Text: KMSY 230953Z 07008KT 10SM CLR 17/09 A3005 RMK AO2 SLP180 T01720094
Loading
Personal Weather Stations






























Interactive Weather Map
Tropical Storm Tracking
New forecast layout! Learn more

10-Day Weather Forecast

Advertisements
Track Severe Weather on mobile